createdAt,value
2019-04-10T00:04:29.618Z,101376.27
2019-04-10T00:12:47.688Z,101380.19
2019-04-10T00:21:27.594Z,101381.80
2019-04-10T00:26:34.458Z,101383.63
2019-04-10T00:35:52.002Z,101376.14
2019-04-10T00:40:59.654Z,101379.16
2019-04-10T00:46:06.593Z,101385.69
2019-04-10T00:51:13.463Z,101385.69
2019-04-10T00:56:20.777Z,101370.75
2019-04-10T01:01:27.710Z,101370.75
2019-04-10T01:06:34.509Z,101384.47
2019-04-10T01:11:41.478Z,101384.48
2019-04-10T01:16:49.365Z,101381.08
2019-04-10T01:21:56.985Z,101384.20
2019-04-10T01:27:05.263Z,101382.39
2019-04-10T01:32:12.489Z,101387.43
2019-04-10T01:37:19.465Z,101383.17
2019-04-10T01:42:26.455Z,101377.76
2019-04-10T01:47:33.497Z,101386.61
2019-04-10T01:52:41.455Z,101391.09
2019-04-10T01:57:49.080Z,101388.53
2019-04-10T02:02:56.113Z,101385.39
2019-04-10T02:08:09.078Z,101390.49
2019-04-10T02:13:12.270Z,101392.34
2019-04-10T02:18:19.503Z,101390.26
2019-04-10T02:23:26.607Z,101399.34
2019-04-10T02:28:33.506Z,101382.73
2019-04-10T02:33:41.237Z,101389.50
2019-04-10T02:38:59.275Z,101389.50
2019-04-10T02:43:58.036Z,101388.42
2019-04-10T02:49:06.194Z,101376.18
2019-04-10T02:54:14.086Z,101380.33
2019-04-10T02:59:23.362Z,101380.33
2019-04-10T03:04:31.118Z,101390.25
2019-04-10T03:09:53.306Z,101389.62
2019-04-10T03:14:47.740Z,101392.28
2019-04-10T03:19:56.082Z,101390.91
2019-04-10T03:25:04.414Z,101397.23
2019-04-10T03:30:14.911Z,101398.30
2019-04-10T03:35:30.352Z,101398.30
2019-04-10T03:40:37.626Z,101393.75
2019-04-10T03:45:44.546Z,101394.69
2019-04-10T03:50:52.176Z,101400.41
2019-04-10T03:55:59.474Z,101400.41
2019-04-10T04:01:06.912Z,101396.35
2019-04-10T04:06:14.096Z,101404.59
2019-04-10T04:11:21.804Z,101401.00
2019-04-10T04:16:28.729Z,101406.70
2019-04-10T04:21:36.257Z,101396.73
2019-04-10T04:26:45.066Z,101400.15
2019-04-10T04:31:52.707Z,101405.78
2019-04-10T04:37:00.625Z,101406.74
2019-04-10T04:42:07.583Z,101400.16
2019-04-10T04:47:15.654Z,101404.62
2019-04-10T04:52:23.782Z,101404.62
2019-04-10T04:57:33.727Z,101416.84
2019-04-10T05:02:42.616Z,101421.38
2019-04-10T05:07:59.349Z,101423.59
2019-04-10T05:12:57.823Z,101430.96
2019-04-10T05:18:06.238Z,101440.02
2019-04-10T05:23:12.357Z,101441.33
2019-04-10T05:28:20.400Z,101440.20
2019-04-10T05:33:27.435Z,101446.66
2019-04-10T05:38:35.536Z,101446.66
2019-04-10T05:43:42.644Z,101446.61
2019-04-10T05:48:50.489Z,101454.26
2019-04-10T05:53:58.021Z,101454.26
2019-04-10T05:59:08.010Z,101452.82
2019-04-10T06:04:14.430Z,101464.16
2019-04-10T06:09:22.659Z,101459.17
2019-04-10T06:14:30.402Z,101455.23
2019-04-10T06:19:38.501Z,101466.55
2019-04-10T06:24:46.906Z,101466.55
2019-04-10T06:29:53.623Z,101477.47
2019-04-10T06:35:01.780Z,101464.23
2019-04-10T06:40:18.149Z,101464.23
2019-04-10T06:45:19.738Z,101462.12
2019-04-10T06:50:28.639Z,101467.97
2019-04-10T06:55:38.446Z,101465.18
2019-04-10T07:00:51.047Z,101465.78
2019-04-10T07:06:06.071Z,101465.78
2019-04-10T07:11:08.689Z,101475.83
2019-04-10T07:16:12.765Z,101477.34
2019-04-10T07:21:20.125Z,101485.41
2019-04-10T07:26:35.441Z,101488.48
2019-04-10T07:31:37.921Z,101498.47
2019-04-10T07:36:46.931Z,101492.17
2019-04-10T07:41:55.749Z,101495.52
2019-04-10T07:47:02.764Z,101501.81
2019-04-10T07:52:10.606Z,101505.08
2019-04-10T07:57:17.559Z,101514.45
2019-04-10T08:02:25.489Z,101511.61
2019-04-10T08:07:35.734Z,101511.61
2019-04-10T08:12:47.349Z,101507.05
2019-04-10T08:17:50.874Z,101512.12
2019-04-10T08:22:57.902Z,101516.09
2019-04-10T08:28:04.669Z,101512.56
2019-04-10T08:33:11.994Z,101518.61
2019-04-10T08:38:19.643Z,101518.61
2019-04-10T08:43:26.685Z,101521.94
2019-04-10T08:48:34.549Z,101521.94
2019-04-10T08:53:42.480Z,101511.97
2019-04-10T08:58:51.802Z,101520.05
2019-04-10T09:03:59.422Z,101520.05
2019-04-10T09:09:09.733Z,101519.02
2019-04-10T09:14:17.079Z,101514.91
2019-04-10T09:19:25.606Z,101511.27
2019-04-10T09:24:32.500Z,101512.54
2019-04-10T09:29:40.361Z,101512.54
2019-04-10T09:34:49.895Z,101502.34
2019-04-10T09:39:58.021Z,101495.45
2019-04-10T09:45:05.596Z,101494.30
2019-04-10T09:50:13.091Z,101496.27
2019-04-10T09:55:20.542Z,101496.27
2019-04-10T10:00:27.882Z,101499.09
2019-04-10T10:05:35.485Z,101496.44
2019-04-10T10:10:42.589Z,101484.44
2019-04-10T10:15:49.534Z,101489.23
2019-04-10T10:20:56.547Z,101490.30
2019-04-10T10:26:03.851Z,101492.23
2019-04-10T10:31:11.563Z,101492.23
2019-04-10T10:36:18.450Z,101485.38
2019-04-10T10:41:26.416Z,101485.38
2019-04-10T10:46:33.548Z,101489.61
2019-04-10T10:51:40.597Z,101495.47
2019-04-10T10:56:48.584Z,101495.50
2019-04-10T11:01:55.983Z,101495.50
2019-04-10T11:07:04.613Z,101489.48
2019-04-10T11:12:12.193Z,101487.80
2019-04-10T11:17:19.936Z,101486.12
2019-04-10T11:22:27.429Z,101484.25
2019-04-10T11:27:35.572Z,101480.30
2019-04-10T11:32:42.593Z,101466.50
2019-04-10T11:37:53.232Z,101471.34
2019-04-10T11:43:04.709Z,101471.34
2019-04-10T11:48:10.331Z,101489.36
2019-04-10T11:53:19.091Z,101478.88
2019-04-10T11:58:28.901Z,101465.14
2019-04-10T12:03:37.118Z,101460.63
2019-04-10T12:09:08.465Z,101455.38
2019-04-10T12:13:54.378Z,101466.31
2019-04-10T12:19:02.676Z,101471.84
2019-04-10T12:24:09.609Z,101466.35
2019-04-10T12:29:16.575Z,101484.52
2019-04-10T12:34:24.580Z,101484.52
2019-04-10T12:39:32.204Z,101469.55
2019-04-10T12:44:42.726Z,101469.55
2019-04-10T12:49:50.585Z,101457.11
2019-04-10T12:54:57.479Z,101467.34
2019-04-10T13:00:05.264Z,101467.34
2019-04-10T13:05:13.309Z,101468.81
2019-04-10T13:10:20.478Z,101462.66
2019-04-10T13:15:27.629Z,101470.65
2019-04-10T13:20:34.688Z,101469.35
2019-04-10T13:25:42.729Z,101473.04
2019-04-10T13:30:53.787Z,101473.04
2019-04-10T13:35:59.562Z,101474.34
2019-04-10T13:41:06.589Z,101468.03
2019-04-10T13:46:14.260Z,101458.02
2019-04-10T13:51:21.460Z,101458.02
2019-04-10T13:56:28.805Z,101469.80
2019-04-10T14:01:38.437Z,101471.67
2019-04-10T14:06:49.269Z,101481.84
2019-04-10T14:11:57.582Z,101493.63
2019-04-10T14:17:06.855Z,101493.63
2019-04-10T14:22:14.246Z,101486.70
2019-04-10T14:27:26.610Z,101490.00
2019-04-10T14:32:38.167Z,101499.84
2019-04-10T14:37:45.475Z,101503.66
2019-04-10T14:42:53.560Z,101502.66
2019-04-10T14:48:03.680Z,101507.61
2019-04-10T14:53:11.742Z,101514.40
2019-04-10T14:58:27.528Z,101514.40
2019-04-10T15:03:30.459Z,101517.24
2019-04-10T15:08:48.801Z,101528.65
2019-04-10T15:13:57.218Z,101525.00
2019-04-10T15:19:04.574Z,101525.00
2019-04-10T15:24:12.602Z,101528.51
2019-04-10T15:29:21.322Z,101512.98
2019-04-10T15:34:28.593Z,101512.98
2019-04-10T15:39:39.958Z,101518.98
2019-04-10T15:44:46.491Z,101518.98
2019-04-10T15:49:53.632Z,101524.18
2019-04-10T15:55:01.558Z,101527.33
2019-04-10T16:00:12.676Z,101527.33
2019-04-10T16:05:20.066Z,101541.23
2019-04-10T16:10:46.285Z,101541.23
2019-04-10T16:15:54.718Z,101540.65
2019-04-10T16:21:02.084Z,101538.44
2019-04-10T16:26:09.650Z,101541.27
2019-04-10T16:31:16.471Z,101540.08
2019-04-10T16:36:23.566Z,101553.73
2019-04-10T16:41:31.189Z,101555.45
2019-04-10T16:46:38.595Z,101555.45
2019-04-10T16:51:45.567Z,101556.88
2019-04-10T16:56:52.591Z,101557.19
2019-04-10T17:02:00.434Z,101543.52
2019-04-10T17:07:08.661Z,101543.52
2019-04-10T17:12:15.671Z,101576.43
2019-04-10T17:17:23.463Z,101577.89
2019-04-10T17:22:37.119Z,101577.89
2019-04-10T17:27:39.414Z,101586.09
2019-04-10T17:32:46.660Z,101591.45
2019-04-10T17:37:54.254Z,101591.83
2019-04-10T17:43:00.998Z,101595.59
2019-04-10T17:48:09.516Z,101602.70
2019-04-10T17:53:17.288Z,101606.55
2019-04-10T17:58:25.921Z,101609.72
2019-04-10T18:03:42.973Z,101616.25
2019-04-10T18:08:41.596Z,101627.83
2019-04-10T18:13:49.242Z,101655.00
2019-04-10T18:18:56.792Z,101655.00
2019-04-10T18:24:04.147Z,101654.34
2019-04-10T18:29:11.670Z,101668.08
2019-04-10T18:34:19.381Z,101681.90
2019-04-10T18:42:28.797Z,101686.70
2019-04-10T18:47:39.145Z,101690.86
2019-04-10T18:52:45.690Z,101693.79
2019-04-10T18:57:52.601Z,101701.67
2019-04-10T19:03:11.034Z,101702.98
2019-04-10T19:08:19.684Z,101702.69
2019-04-10T19:13:26.693Z,101707.89
2019-04-10T19:18:33.596Z,101711.84
2019-04-10T19:23:41.747Z,101722.19
2019-04-10T19:28:48.846Z,101722.19
2019-04-10T19:33:56.774Z,101724.30
2019-04-10T19:39:05.536Z,101726.15
2019-04-10T19:44:12.952Z,101726.54
2019-04-10T19:49:20.064Z,101728.39
2019-04-10T19:54:28.205Z,101724.64
2019-04-10T19:59:37.249Z,101734.25
2019-04-10T20:04:45.050Z,101739.72
2019-04-10T20:09:52.818Z,101755.75
2019-04-10T20:15:00.501Z,101752.45
2019-04-10T20:20:08.443Z,101752.45
2019-04-10T20:25:16.471Z,101758.50
2019-04-10T20:30:26.268Z,101767.88
2019-04-10T20:36:11.033Z,101766.97
2019-04-10T20:41:18.399Z,101771.05
2019-04-10T20:46:26.321Z,101777.26
2019-04-10T20:51:33.256Z,101784.89
2019-04-10T20:56:41.062Z,101789.67
2019-04-10T21:01:49.095Z,101798.27
2019-04-10T21:06:56.639Z,101803.47
2019-04-10T21:12:08.580Z,101810.97
2019-04-10T21:17:12.491Z,101814.26
2019-04-10T21:22:20.355Z,101826.10
2019-04-10T21:27:28.005Z,101838.30
2019-04-10T21:33:02.273Z,101847.52
2019-04-10T21:38:09.453Z,101851.73
2019-04-10T21:43:18.538Z,101870.78
2019-04-10T21:48:26.602Z,101865.02
2019-04-10T21:53:34.453Z,101872.83
2019-04-10T21:58:42.576Z,101872.83
2019-04-10T22:03:50.520Z,101881.89
2019-04-10T22:09:15.345Z,101881.89
2019-04-10T22:14:24.268Z,101876.81
2019-04-10T22:19:31.543Z,101876.81
2019-04-10T22:24:38.633Z,101892.39
2019-04-10T22:29:45.532Z,101896.81
2019-04-10T22:34:52.836Z,101897.17
2019-04-10T22:40:01.103Z,101897.17
2019-04-10T22:45:15.559Z,101897.32
2019-04-10T22:50:22.583Z,101902.47
2019-04-10T22:55:29.583Z,101901.31
2019-04-10T23:00:37.602Z,101899.79
2019-04-10T23:05:44.797Z,101899.79
2019-04-10T23:10:51.640Z,101903.11
2019-04-10T23:15:59.673Z,101897.02
2019-04-10T23:21:08.141Z,101897.02
2019-04-10T23:26:15.931Z,101915.02
2019-04-10T23:31:23.721Z,101915.95
2019-04-10T23:36:31.729Z,101917.77
2019-04-10T23:41:39.785Z,101915.28
2019-04-10T23:46:47.452Z,101924.58
2019-04-10T23:51:55.662Z,101924.58
2019-04-10T23:57:03.134Z,101927.50
